createdAt,value
2017-05-08T00:00:18.492Z,8.66
2017-05-08T00:02:45.272Z,8.54
2017-05-08T00:05:12.843Z,7.30
2017-05-08T00:07:39.619Z,8.92
2017-05-08T00:10:06.435Z,8.44
2017-05-08T00:12:33.266Z,9.50
2017-05-08T00:15:00.047Z,10.56
2017-05-08T00:17:26.884Z,7.78
2017-05-08T00:19:53.694Z,7.24
2017-05-08T00:22:20.523Z,6.60
2017-05-08T00:24:47.383Z,7.50
2017-05-08T00:27:14.200Z,10.34
2017-05-08T00:29:41.031Z,8.58
2017-05-08T00:32:07.826Z,9.90
2017-05-08T00:34:35.348Z,6.62
2017-05-08T00:37:02.272Z,6.24
2017-05-08T00:39:29.059Z,6.62
2017-05-08T00:41:55.847Z,6.50
2017-05-08T00:44:22.683Z,6.88
2017-05-08T00:46:50.212Z,6.84
2017-05-08T00:49:17.041Z,6.88
2017-05-08T00:51:44.563Z,7.82
2017-05-08T00:54:11.405Z,5.78
2017-05-08T00:56:38.220Z,5.88
2017-05-08T00:59:05.003Z,5.84
2017-05-08T01:01:31.820Z,6.30
2017-05-08T01:03:58.624Z,7.06
2017-05-08T01:06:26.192Z,5.22
2017-05-08T01:08:53.028Z,7.76
2017-05-08T01:11:19.871Z,6.46
2017-05-08T01:13:46.712Z,6.62
2017-05-08T01:16:13.496Z,5.84
2017-05-08T01:18:41.044Z,5.64
2017-05-08T01:21:08.603Z,6.08
2017-05-08T01:23:35.389Z,5.54
2017-05-08T01:26:02.227Z,8.04
2017-05-08T01:28:29.791Z,5.90
2017-05-08T01:30:57.324Z,5.56
2017-05-08T01:33:24.919Z,6.18
2017-05-08T01:35:51.705Z,5.18
2017-05-08T01:38:19.275Z,5.68
2017-05-08T01:40:46.072Z,5.70
2017-05-08T01:43:13.596Z,7.38
2017-05-08T01:45:40.435Z,5.34
2017-05-08T01:48:07.216Z,4.32
2017-05-08T01:50:34.039Z,6.88
2017-05-08T01:53:00.822Z,5.16
2017-05-08T01:55:28.395Z,8.04
2017-05-08T01:57:55.209Z,4.68
2017-05-08T02:00:22.091Z,4.58
2017-05-08T02:02:48.917Z,4.34
2017-05-08T02:05:15.695Z,6.00
2017-05-08T02:07:43.261Z,12.34
2017-05-08T02:10:10.125Z,5.68
2017-05-08T02:12:36.969Z,5.16
2017-05-08T02:15:03.760Z,4.84
2017-05-08T02:17:30.628Z,4.84
2017-05-08T02:19:57.428Z,6.64
2017-05-08T02:22:24.239Z,9.06
2017-05-08T02:24:51.183Z,4.80
2017-05-08T02:27:18.016Z,5.60
2017-05-08T02:29:44.807Z,4.82
2017-05-08T02:32:11.649Z,5.74
2017-05-08T02:34:38.443Z,6.58
2017-05-08T02:37:05.985Z,6.00
2017-05-08T02:39:33.617Z,5.32
2017-05-08T02:42:00.405Z,7.54
2017-05-08T02:44:27.243Z,5.38
2017-05-08T02:46:54.141Z,6.14
2017-05-08T02:49:20.951Z,6.50
2017-05-08T02:51:48.476Z,6.12
2017-05-08T02:54:15.307Z,6.46
2017-05-08T02:56:42.088Z,6.28
2017-05-08T02:59:08.868Z,5.28
2017-05-08T03:01:36.494Z,5.96
2017-05-08T03:04:03.283Z,7.06
2017-05-08T03:06:30.071Z,7.20
2017-05-08T03:08:57.660Z,5.94
2017-05-08T03:11:24.482Z,4.78
2017-05-08T03:13:51.264Z,5.80
2017-05-08T03:16:18.092Z,4.98
2017-05-08T03:18:44.872Z,5.12
2017-05-08T03:21:11.851Z,5.04
2017-05-08T03:23:38.644Z,4.80
2017-05-08T03:26:05.451Z,5.88
2017-05-08T03:28:32.340Z,5.32
2017-05-08T03:30:59.980Z,5.56
2017-05-08T03:33:26.790Z,7.18
2017-05-08T03:35:53.604Z,9.58
2017-05-08T03:38:20.423Z,5.86
2017-05-08T03:40:47.244Z,6.56
2017-05-08T03:43:14.035Z,8.00
2017-05-08T03:45:41.603Z,5.42
2017-05-08T03:48:08.406Z,7.00
2017-05-08T03:50:35.968Z,7.32
2017-05-08T03:53:02.828Z,5.54
2017-05-08T03:55:29.627Z,5.26
2017-05-08T03:57:56.477Z,6.40
2017-05-08T04:00:23.299Z,5.88
2017-05-08T04:02:50.116Z,6.12
2017-05-08T04:05:16.899Z,10.90
2017-05-08T04:07:43.723Z,4.90
2017-05-08T04:10:10.504Z,5.14
2017-05-08T04:12:37.292Z,6.12
2017-05-08T04:15:04.210Z,5.40
2017-05-08T04:17:30.991Z,6.90
2017-05-08T04:19:57.804Z,4.74
2017-05-08T04:22:24.709Z,5.50
2017-05-08T04:24:52.321Z,5.98
2017-05-08T04:27:19.148Z,6.76
2017-05-08T04:29:45.992Z,6.50
2017-05-08T04:32:12.891Z,6.96
2017-05-08T04:34:39.678Z,7.02
2017-05-08T04:37:07.255Z,8.72
2017-05-08T04:39:34.079Z,6.36
2017-05-08T04:42:00.924Z,8.16
2017-05-08T04:44:27.729Z,6.10
2017-05-08T04:46:54.988Z,6.46
2017-05-08T04:49:21.807Z,7.68
2017-05-08T04:51:48.635Z,6.22
2017-05-08T04:54:15.420Z,7.44
2017-05-08T04:56:43.012Z,7.76
2017-05-08T04:59:09.895Z,8.36
2017-05-08T05:01:37.475Z,7.16
2017-05-08T05:04:04.275Z,7.62
2017-05-08T05:06:31.798Z,7.30
2017-05-08T05:08:58.638Z,8.20
2017-05-08T05:11:26.175Z,8.30
2017-05-08T05:13:52.976Z,9.46
2017-05-08T05:16:19.792Z,10.50
2017-05-08T05:18:46.629Z,9.76
2017-05-08T05:21:13.422Z,11.28
2017-05-08T05:23:40.214Z,14.48
2017-05-08T05:26:07.049Z,15.84
2017-05-08T05:28:34.624Z,13.10
2017-05-08T05:31:01.466Z,9.58
2017-05-08T05:33:28.274Z,8.96
2017-05-08T05:35:55.121Z,10.50
2017-05-08T05:38:22.020Z,9.58
2017-05-08T05:40:49.541Z,10.82
2017-05-08T05:43:16.320Z,8.90
2017-05-08T05:45:43.135Z,10.88
2017-05-08T05:48:09.964Z,9.94
2017-05-08T05:50:36.747Z,10.34
2017-05-08T05:53:03.542Z,10.48
2017-05-08T05:55:37.592Z,11.32
2017-05-08T05:58:05.417Z,10.66
2017-05-08T06:00:32.203Z,10.36
2017-05-08T06:02:59.048Z,10.18
2017-05-08T06:05:25.874Z,11.88
2017-05-08T06:07:52.751Z,12.66
2017-05-08T06:10:19.573Z,15.28
2017-05-08T06:12:46.408Z,11.50
2017-05-08T06:15:13.196Z,11.36
2017-05-08T06:17:39.979Z,14.84
2017-05-08T06:20:07.568Z,11.08
2017-05-08T06:22:34.397Z,11.10
2017-05-08T06:25:01.237Z,10.98
2017-05-08T06:27:28.028Z,12.26
2017-05-08T06:29:54.867Z,11.26
2017-05-08T06:32:21.707Z,9.62
2017-05-08T06:34:48.483Z,10.28
2017-05-08T06:37:16.007Z,10.38
2017-05-08T06:39:42.843Z,10.42
2017-05-08T06:42:09.623Z,12.32
2017-05-08T06:44:36.400Z,13.06
2017-05-08T06:47:03.962Z,16.18
2017-05-08T06:49:31.491Z,14.92
2017-05-08T06:51:58.283Z,15.48
2017-05-08T06:54:25.159Z,12.80
2017-05-08T06:56:52.692Z,12.32
2017-05-08T06:59:19.472Z,12.14
2017-05-08T07:01:46.287Z,11.14
2017-05-08T07:04:13.107Z,11.72
2017-05-08T07:06:39.928Z,10.78
2017-05-08T07:09:06.764Z,11.02
2017-05-08T07:11:33.543Z,10.88
2017-05-08T07:14:00.369Z,11.76
2017-05-08T07:16:27.160Z,12.56
2017-05-08T07:18:53.944Z,10.52
2017-05-08T07:21:21.576Z,9.62
2017-05-08T07:23:48.356Z,10.52
2017-05-08T07:26:15.131Z,8.60
2017-05-08T07:28:42.063Z,9.10
2017-05-08T07:31:08.946Z,12.82
2017-05-08T07:33:35.771Z,9.80
2017-05-08T07:36:02.564Z,10.78
2017-05-08T07:38:30.171Z,11.62
2017-05-08T07:40:56.965Z,9.06
2017-05-08T07:43:23.770Z,10.16
2017-05-08T07:45:51.331Z,10.44
2017-05-08T07:48:18.109Z,10.62
2017-05-08T07:50:44.936Z,7.56
2017-05-08T07:53:11.715Z,7.96
2017-05-08T07:55:38.504Z,7.44
2017-05-08T07:58:05.341Z,6.34
2017-05-08T08:00:32.855Z,6.10
2017-05-08T08:02:59.653Z,7.00
2017-05-08T08:05:26.510Z,7.90
2017-05-08T08:07:53.308Z,7.84
2017-05-08T08:10:20.084Z,10.18
2017-05-08T08:12:46.895Z,9.64
2017-05-08T08:15:13.691Z,11.72
2017-05-08T08:17:40.523Z,10.18
2017-05-08T08:20:07.299Z,11.78
2017-05-08T08:22:34.090Z,12.42
2017-05-08T08:25:00.956Z,14.14
2017-05-08T08:27:27.767Z,15.20
2017-05-08T08:29:54.626Z,15.70
2017-05-08T08:32:22.193Z,16.54
2017-05-08T08:34:48.988Z,17.44
2017-05-08T08:37:15.847Z,17.60
2017-05-08T08:39:42.626Z,17.08
2017-05-08T08:42:09.408Z,22.12
2017-05-08T08:44:36.235Z,20.12
2017-05-08T08:47:03.022Z,31.76
2017-05-08T08:49:29.837Z,31.08
2017-05-08T08:51:56.672Z,32.90
2017-05-08T08:54:23.471Z,37.20
2017-05-08T08:56:50.268Z,41.18
2017-05-08T08:59:17.096Z,48.66
2017-05-08T09:01:43.892Z,51.54
2017-05-08T09:04:10.675Z,46.72
2017-05-08T09:06:37.659Z,45.36
2017-05-08T09:09:05.279Z,50.52
2017-05-08T09:11:32.097Z,52.12
2017-05-08T09:13:58.900Z,49.62
2017-05-08T09:16:25.734Z,56.38
2017-05-08T09:18:52.511Z,52.58
2017-05-08T09:21:19.291Z,65.52
2017-05-08T09:23:46.111Z,61.10
2017-05-08T09:26:12.896Z,52.88
2017-05-08T09:28:40.472Z,58.24
2017-05-08T09:31:07.255Z,65.58
2017-05-08T09:33:34.040Z,57.10
2017-05-08T09:36:00.868Z,54.32
2017-05-08T09:38:27.703Z,50.94
2017-05-08T09:40:54.580Z,52.14
2017-05-08T09:43:22.100Z,49.16
2017-05-08T09:45:48.915Z,48.24
2017-05-08T09:48:15.724Z,46.02
2017-05-08T09:50:42.556Z,45.44
2017-05-08T09:53:09.351Z,48.94
2017-05-08T09:55:36.884Z,55.14
2017-05-08T09:58:04.491Z,56.98
2017-05-08T10:00:31.279Z,52.12
2017-05-08T10:02:58.084Z,51.76
2017-05-08T10:05:25.679Z,59.76
2017-05-08T10:07:52.494Z,49.74
2017-05-08T10:10:19.279Z,51.02
2017-05-08T10:12:46.127Z,47.20
2017-05-08T10:15:13.651Z,48.68
2017-05-08T10:17:40.469Z,45.60
2017-05-08T10:20:07.343Z,43.28
2017-05-08T10:22:34.130Z,44.66
2017-05-08T10:25:00.932Z,40.02
2017-05-08T10:27:27.803Z,39.86
2017-05-08T10:29:55.352Z,44.38
2017-05-08T10:32:22.879Z,38.38
2017-05-08T10:34:50.052Z,49.38
2017-05-08T10:37:16.837Z,49.28
2017-05-08T10:39:43.617Z,50.08
2017-05-08T10:42:10.459Z,48.38
2017-05-08T10:44:37.276Z,42.92
2017-05-08T10:47:04.055Z,36.16
2017-05-08T10:49:30.863Z,37.50
2017-05-08T10:51:57.657Z,37.06
2017-05-08T10:54:24.507Z,41.94
2017-05-08T10:56:51.297Z,34.36
2017-05-08T10:59:18.076Z,35.10
2017-05-08T11:01:44.920Z,32.88
2017-05-08T11:04:11.716Z,31.44
2017-05-08T11:06:38.504Z,38.32
2017-05-08T11:09:05.377Z,33.08
2017-05-08T11:11:32.171Z,31.78
2017-05-08T11:13:58.961Z,40.20
2017-05-08T11:16:25.772Z,31.62
2017-05-08T11:18:52.559Z,34.60
2017-05-08T11:21:19.403Z,38.40
2017-05-08T11:23:46.184Z,29.36
2017-05-08T11:26:13.704Z,31.22
2017-05-08T11:28:40.531Z,33.06
2017-05-08T11:31:07.340Z,29.76
2017-05-08T11:33:34.139Z,32.18
2017-05-08T11:36:00.951Z,24.92
2017-05-08T11:38:27.733Z,37.74
2017-05-08T11:40:54.592Z,26.76
2017-05-08T11:43:22.119Z,27.50
2017-05-08T11:45:48.940Z,28.74
2017-05-08T11:48:15.740Z,26.74
2017-05-08T11:50:42.555Z,24.98
2017-05-08T11:53:09.365Z,27.42
2017-05-08T11:55:36.223Z,26.06
2017-05-08T11:58:03.005Z,24.68
2017-05-08T12:00:30.532Z,29.52
2017-05-08T12:02:57.364Z,30.78
2017-05-08T12:05:24.920Z,30.92
2017-05-08T12:07:52.495Z,27.04
2017-05-08T12:10:19.282Z,28.44
2017-05-08T12:12:46.067Z,29.16
2017-05-08T12:15:12.886Z,36.46
2017-05-08T12:17:39.671Z,38.62
2017-05-08T12:20:07.188Z,40.40
2017-05-08T12:22:34.009Z,37.06
2017-05-08T12:25:00.869Z,29.56
2017-05-08T12:27:28.390Z,36.08
2017-05-08T12:29:55.183Z,36.14
2017-05-08T12:32:22.015Z,31.96
2017-05-08T12:34:48.808Z,32.26
2017-05-08T12:37:16.328Z,39.74
2017-05-08T12:39:43.200Z,30.86
2017-05-08T12:42:10.043Z,30.98
2017-05-08T12:44:36.844Z,29.58
2017-05-08T12:47:04.418Z,26.98
2017-05-08T12:49:31.188Z,28.18
2017-05-08T12:51:57.980Z,24.06
2017-05-08T12:54:24.796Z,27.34
2017-05-08T12:56:51.588Z,24.84
2017-05-08T12:59:19.159Z,25.42
2017-05-08T13:01:45.968Z,24.60
2017-05-08T13:04:13.495Z,23.76
2017-05-08T13:06:40.347Z,22.08
2017-05-08T13:09:07.167Z,23.56
2017-05-08T13:11:34.700Z,21.16
2017-05-08T13:14:02.295Z,19.54
2017-05-08T13:16:29.087Z,23.10
2017-05-08T13:18:56.623Z,23.48
2017-05-08T13:21:23.460Z,23.42
2017-05-08T13:23:50.988Z,20.12
2017-05-08T13:26:17.763Z,19.04
2017-05-08T13:28:44.588Z,18.36
2017-05-08T13:31:11.368Z,18.78
2017-05-08T13:33:38.283Z,19.52
2017-05-08T13:36:05.067Z,20.32
2017-05-08T13:38:31.847Z,17.54
2017-05-08T13:40:58.706Z,19.84
2017-05-08T13:43:25.523Z,18.94
2017-05-08T13:45:53.047Z,18.16
2017-05-08T13:48:19.880Z,21.50
2017-05-08T13:50:46.659Z,17.90
2017-05-08T13:53:13.436Z,18.40
2017-05-08T13:55:40.276Z,17.52
2017-05-08T13:58:07.799Z,17.28
2017-05-08T14:00:34.579Z,19.84
2017-05-08T14:03:01.407Z,16.36
2017-05-08T14:05:28.217Z,19.04
2017-05-08T14:07:55.082Z,16.94
2017-05-08T14:10:21.931Z,15.94
2017-05-08T14:12:48.716Z,22.46
2017-05-08T14:15:15.554Z,21.88
2017-05-08T14:17:42.367Z,18.64
2017-05-08T14:20:09.155Z,18.04
2017-05-08T14:22:35.972Z,20.16
2017-05-08T14:25:02.756Z,15.98
2017-05-08T14:27:29.639Z,19.40
2017-05-08T14:29:56.487Z,18.08
2017-05-08T14:32:23.331Z,18.20
2017-05-08T14:34:50.116Z,18.28
2017-05-08T14:37:16.895Z,18.60
2017-05-08T14:39:43.742Z,19.98
2017-05-08T14:42:10.559Z,18.86
2017-05-08T14:44:37.331Z,18.40
2017-05-08T14:47:04.163Z,16.00
2017-05-08T14:49:30.938Z,14.62
2017-05-08T14:51:57.723Z,19.62
2017-05-08T14:54:25.297Z,19.26
2017-05-08T14:56:52.195Z,20.54
2017-05-08T14:59:18.971Z,16.44
2017-05-08T15:01:45.755Z,18.76
2017-05-08T15:04:13.363Z,17.84
2017-05-08T15:06:40.171Z,17.48
2017-05-08T15:09:06.991Z,17.48
2017-05-08T15:11:33.809Z,17.56
2017-05-08T15:14:00.608Z,19.56
2017-05-08T15:16:27.502Z,15.94
2017-05-08T15:18:54.371Z,15.48
2017-05-08T15:21:21.916Z,15.08
2017-05-08T15:23:49.496Z,14.62
2017-05-08T15:26:16.269Z,13.66
2017-05-08T15:28:43.060Z,14.62
2017-05-08T15:31:09.885Z,16.56
2017-05-08T15:33:36.679Z,18.50
2017-05-08T15:36:04.211Z,14.72
2017-05-08T15:38:31.779Z,14.30
2017-05-08T15:40:58.589Z,18.00
2017-05-08T15:43:26.115Z,16.18
2017-05-08T15:45:52.956Z,15.84
2017-05-08T15:48:19.787Z,13.70
2017-05-08T15:50:46.624Z,13.26
2017-05-08T15:53:14.177Z,15.44
2017-05-08T15:55:41.700Z,14.36
2017-05-08T15:58:08.531Z,18.58
2017-05-08T16:00:35.317Z,18.76
2017-05-08T16:03:02.095Z,15.78
2017-05-08T16:05:29.683Z,16.48
2017-05-08T16:07:56.472Z,14.82
2017-05-08T16:10:24.018Z,18.54
2017-05-08T16:12:51.627Z,15.16
2017-05-08T16:15:18.424Z,16.28
2017-05-08T16:17:45.211Z,22.76
2017-05-08T16:20:12.784Z,14.54
2017-05-08T16:22:39.567Z,15.06
2017-05-08T16:25:06.477Z,18.64
2017-05-08T16:27:38.682Z,16.72
2017-05-08T16:30:08.203Z,19.40
2017-05-08T16:32:35.013Z,17.42
2017-05-08T16:35:01.832Z,15.34
2017-05-08T16:37:28.672Z,12.12
2017-05-08T16:39:55.477Z,14.56
2017-05-08T16:42:23.128Z,14.98
2017-05-08T16:44:50.722Z,14.82
2017-05-08T16:47:17.524Z,17.74
2017-05-08T16:49:44.407Z,15.50
2017-05-08T16:52:11.335Z,11.20
2017-05-08T16:54:38.251Z,12.70
2017-05-08T16:57:05.035Z,12.70
2017-05-08T16:59:31.925Z,15.36
2017-05-08T17:01:58.824Z,13.30
2017-05-08T17:04:25.627Z,15.40
2017-05-08T17:06:52.457Z,15.84
2017-05-08T17:09:19.239Z,14.56
2017-05-08T17:11:46.019Z,12.24
2017-05-08T17:14:12.883Z,10.88
2017-05-08T17:16:39.719Z,12.46
2017-05-08T17:19:06.504Z,13.92
2017-05-08T17:21:33.287Z,10.98
2017-05-08T17:24:01.032Z,10.26
2017-05-08T17:26:27.844Z,9.06
2017-05-08T17:28:54.659Z,10.10
2017-05-08T17:31:21.505Z,10.56
2017-05-08T17:33:48.287Z,11.48
2017-05-08T17:36:15.079Z,9.68
2017-05-08T17:38:42.656Z,11.30
2017-05-08T17:41:09.434Z,10.18
2017-05-08T17:43:36.211Z,10.58
2017-05-08T17:46:03.049Z,7.34
2017-05-08T17:48:29.903Z,11.00
2017-05-08T17:50:56.740Z,8.30
2017-05-08T17:53:23.632Z,12.56
2017-05-08T17:55:50.413Z,9.46
2017-05-08T17:58:17.943Z,9.62
2017-05-08T18:00:44.779Z,10.42
2017-05-08T18:03:11.563Z,8.82
2017-05-08T18:05:38.389Z,10.32
2017-05-08T18:08:05.223Z,7.96
2017-05-08T18:10:32.008Z,8.52
2017-05-08T18:12:59.543Z,10.02
2017-05-08T18:15:27.117Z,10.64
2017-05-08T18:17:53.943Z,4.98
2017-05-08T18:20:20.792Z,2.72
2017-05-08T18:22:47.575Z,2.82
2017-05-08T18:25:15.143Z,4.40
2017-05-08T18:27:41.935Z,5.50
2017-05-08T18:30:08.829Z,4.32
2017-05-08T18:32:35.664Z,4.22
2017-05-08T18:35:02.567Z,3.38
2017-05-08T18:37:29.372Z,3.22
2017-05-08T18:39:56.284Z,3.38
2017-05-08T18:42:23.914Z,3.50
2017-05-08T18:44:50.695Z,3.36
2017-05-08T18:47:17.519Z,3.52
2017-05-08T18:49:44.307Z,7.44
2017-05-08T18:52:11.091Z,7.02
2017-05-08T18:54:37.967Z,5.58
2017-05-08T18:57:04.747Z,4.36
2017-05-08T18:59:31.527Z,3.14
2017-05-08T19:01:59.121Z,4.34
2017-05-08T19:04:25.977Z,3.48
2017-05-08T19:06:52.839Z,3.08
2017-05-08T19:09:19.708Z,3.72
2017-05-08T19:11:46.507Z,2.98
2017-05-08T19:14:13.297Z,3.36
2017-05-08T19:16:40.116Z,4.16
2017-05-08T19:19:06.883Z,3.54
2017-05-08T19:21:34.437Z,3.50
2017-05-08T19:24:01.275Z,3.52
2017-05-08T19:26:28.464Z,5.88
2017-05-08T19:28:55.268Z,3.70
2017-05-08T19:31:22.055Z,5.60
2017-05-08T19:33:48.892Z,3.36
2017-05-08T19:36:15.672Z,4.00
2017-05-08T19:38:42.452Z,4.54
2017-05-08T19:41:09.288Z,3.92
2017-05-08T19:43:36.110Z,4.90
2017-05-08T19:46:02.887Z,4.80
2017-05-08T19:48:29.731Z,5.72
2017-05-08T19:50:56.587Z,11.36
2017-05-08T19:53:23.759Z,6.36
2017-05-08T19:55:50.536Z,6.20
2017-05-08T19:58:18.109Z,5.90
2017-05-08T20:00:44.896Z,6.20
2017-05-08T20:03:12.417Z,5.80
2017-05-08T20:05:39.260Z,6.60
2017-05-08T20:08:06.796Z,6.96
2017-05-08T20:10:34.410Z,6.16
2017-05-08T20:13:01.243Z,10.76
2017-05-08T20:15:28.047Z,6.96
2017-05-08T20:17:54.903Z,6.38
2017-05-08T20:20:21.746Z,6.64
2017-05-08T20:22:48.531Z,8.16
2017-05-08T20:25:16.551Z,11.16
2017-05-08T20:27:43.748Z,10.16
2017-05-08T20:30:10.531Z,11.04
2017-05-08T20:32:38.104Z,11.70
2017-05-08T20:35:04.948Z,8.46
2017-05-08T20:37:31.740Z,9.00
2017-05-08T20:39:58.605Z,8.84
2017-05-08T20:42:25.473Z,8.46
2017-05-08T20:44:52.289Z,10.48
2017-05-08T20:47:19.074Z,8.96
2017-05-08T20:49:45.892Z,10.34
2017-05-08T20:52:12.719Z,8.94
2017-05-08T20:54:39.507Z,9.60
2017-05-08T20:57:06.326Z,9.02
2017-05-08T20:59:33.260Z,8.24
2017-05-08T21:02:00.037Z,9.04
2017-05-08T21:04:26.867Z,9.12
2017-05-08T21:06:54.691Z,9.64
2017-05-08T21:09:22.220Z,11.00
2017-05-08T21:11:49.003Z,9.74
2017-05-08T21:14:15.815Z,8.60
2017-05-08T21:16:42.635Z,8.60
2017-05-08T21:19:09.468Z,8.26
2017-05-08T21:21:36.247Z,9.24
2017-05-08T21:24:03.031Z,7.22
2017-05-08T21:26:29.872Z,6.64
2017-05-08T21:28:56.717Z,9.68
2017-05-08T21:31:23.508Z,8.30
2017-05-08T21:33:50.331Z,7.94
2017-05-08T21:36:17.113Z,7.90
2017-05-08T21:38:43.892Z,6.46
2017-05-08T21:41:10.720Z,7.04
2017-05-08T21:43:37.508Z,6.72
2017-05-08T21:46:05.023Z,4.98
2017-05-08T21:48:31.847Z,7.28
2017-05-08T21:50:58.624Z,5.48
2017-05-08T21:53:26.211Z,8.20
2017-05-08T21:55:53.055Z,6.00
2017-05-08T21:58:19.851Z,6.06
2017-05-08T22:00:46.639Z,5.12
2017-05-08T22:03:14.251Z,5.90
2017-05-08T22:05:41.060Z,5.28
2017-05-08T22:08:07.836Z,6.22
2017-05-08T22:10:34.719Z,6.36
2017-05-08T22:13:01.516Z,5.00
2017-05-08T22:15:28.291Z,5.48
2017-05-08T22:17:55.123Z,6.46
2017-05-08T22:20:21.929Z,5.82
2017-05-08T22:22:48.786Z,7.78
2017-05-08T22:25:15.664Z,6.88
2017-05-08T22:27:42.499Z,5.38
2017-05-08T22:30:09.292Z,6.10
2017-05-08T22:32:36.124Z,5.68
2017-05-08T22:35:02.959Z,6.30
2017-05-08T22:37:29.826Z,6.30
2017-05-08T22:39:56.616Z,6.68
2017-05-08T22:42:23.464Z,6.30
2017-05-08T22:44:50.991Z,6.24
2017-05-08T22:47:17.779Z,5.40
2017-05-08T22:49:44.612Z,5.90
2017-05-08T22:52:11.399Z,6.52
2017-05-08T22:54:38.198Z,9.84
2017-05-08T22:57:05.024Z,7.40
2017-05-08T22:59:31.885Z,6.60
2017-05-08T23:01:58.664Z,6.06
2017-05-08T23:04:25.465Z,6.18
2017-05-08T23:06:52.291Z,7.14
2017-05-08T23:09:19.132Z,6.48
2017-05-08T23:11:45.945Z,5.88
2017-05-08T23:14:12.779Z,6.72
2017-05-08T23:16:40.315Z,7.76
2017-05-08T23:19:07.839Z,7.98
2017-05-08T23:21:34.667Z,6.06
2017-05-08T23:24:01.452Z,6.70
2017-05-08T23:26:28.239Z,6.78
2017-05-08T23:28:55.058Z,6.58
2017-05-08T23:31:21.871Z,5.48
2017-05-08T23:33:49.517Z,5.20
2017-05-08T23:36:16.300Z,5.94
2017-05-08T23:38:43.090Z,7.38
2017-05-08T23:41:09.905Z,7.76
2017-05-08T23:43:36.755Z,5.52
2017-05-08T23:46:03.538Z,6.84
2017-05-08T23:48:30.311Z,6.48
2017-05-08T23:50:57.136Z,5.34
2017-05-08T23:53:23.973Z,5.12
2017-05-08T23:55:51.528Z,5.58
2017-05-08T23:58:18.325Z,5.96
